Time;durP1;ratioP1;P1;durP2;ratioP2;P2;SDS_P1;SDS_P2;PMS_P1;PMS_P2;Temp;Humidity;BMP_temperature;BMP_pressure;BME280_temperature;BME280_humidity;BME280_pressure;Samples;Min_cycle;Max_cycle;Signal;HPM_P1;HPM_P2
2022/09/22 00:00:58;;;;;;;;;;;10.30;99.90;;;;;;6103028;23;19943;-74
2022/09/22 00:03:26;;;;;;;;;;;10.20;99.90;;;;;;6124360;23;20007;-74
2022/09/22 00:06:04;;;;;;;;;;;10.20;99.90;;;;;;6125398;23;19921;-74
2022/09/22 00:08:33;;;;;;;;;;;10.20;99.90;;;;;;6151095;23;19927;-74
2022/09/22 00:11:02;;;;;;;;;;;10.30;99.90;;;;;;6150373;23;20314;-74
2022/09/22 00:13:31;;;;;;;;;;;10.30;99.90;;;;;;6125935;23;19927;-74
2022/09/22 00:15:59;;;;;;;;;;;10.40;99.90;;;;;;6152098;23;20200;-75
2022/09/22 00:18:26;;;;;;;;;;;10.40;99.90;;;;;;6153553;23;19991;-73
2022/09/22 00:20:54;;;;;;;;;;;10.40;99.90;;;;;;6152773;23;19920;-73
2022/09/22 00:23:24;;;;;;;;;;;10.50;99.90;;;;;;6124996;23;19927;-75
2022/09/22 00:25:51;;;;;;;;;;;10.60;99.90;;;;;;6153433;23;19920;-75
2022/09/22 00:28:20;;;;;;;;;;;10.60;99.90;;;;;;6127517;23;20239;-75
2022/09/22 00:30:49;;;;;;;;;;;10.60;99.90;;;;;;6100559;23;19928;-75
2022/09/22 00:33:16;;;;;;;;;;;10.60;99.90;;;;;;6153127;23;19927;-75
2022/09/22 00:35:43;;;;;;;;;;;10.60;99.90;;;;;;6127373;23;20294;-75
2022/09/22 00:38:10;;;;;;;;;;;10.70;99.90;;;;;;6151881;23;19967;-75
2022/09/22 00:40:37;;;;;;;;;;;10.60;99.90;;;;;;6124062;23;19984;-75
2022/09/22 00:43:16;;;;;;;;;;;10.60;99.90;;;;;;6151622;23;19920;-76
2022/09/22 00:45:44;;;;;;;;;;;10.60;99.90;;;;;;6127265;23;19920;-77
2022/09/22 00:48:12;;;;;;;;;;;10.60;99.90;;;;;;6152012;23;20020;-77
2022/09/22 00:50:40;;;;;;;;;;;10.50;99.90;;;;;;6152987;23;19928;-78
2022/09/22 00:53:10;;;;;;;;;;;10.50;99.90;;;;;;6153680;23;19999;-77
2022/09/22 00:55:41;;;;;;;;;;;10.40;99.90;;;;;;6127060;23;19920;-79
2022/09/22 00:58:11;;;;;;;;;;;10.40;99.90;;;;;;6149767;23;19959;-77
2022/09/22 01:00:38;;;;;;;;;;;10.30;99.90;;;;;;6151829;23;19924;-78
2022/09/22 01:03:16;;;;;;;;;;;10.30;99.90;;;;;;6153387;23;19936;-78
2022/09/22 01:05:47;;;;;;;;;;;10.20;99.90;;;;;;6152975;23;19921;-77
2022/09/22 01:08:15;;;;;;;;;;;10.20;99.90;;;;;;6150915;23;20329;-77
2022/09/22 01:10:42;;;;;;;;;;;10.10;99.90;;;;;;6151977;23;19927;-77
2022/09/22 01:13:19;;;;;;;;;;;10.10;99.90;;;;;;6150786;23;19926;-77
2022/09/22 01:15:54;;;;;;;;;;;10.10;99.90;;;;;;6125373;23;20419;-76
2022/09/22 01:18:27;;;;;;;;;;;10.10;99.90;;;;;;6153282;23;19920;-77
2022/09/22 01:21:09;;;;;;;;;;;10.00;99.90;;;;;;6151650;23;19921;-77
2022/09/22 01:23:52;;;;;;;;;;;10.00;99.90;;;;;;6128525;23;19920;-78
2022/09/22 01:26:44;;;;;;;;;;;10.00;99.90;;;;;;6127459;23;19948;-77
2022/09/22 01:29:38;;;;;;;;;;;10.00;99.90;;;;;;6153287;23;19975;-77
2022/09/22 01:32:11;;;;;;;;;;;9.90;99.90;;;;;;6156057;23;19920;-78
2022/09/22 01:34:44;;;;;;;;;;;9.80;99.90;;;;;;6153599;23;19975;-77
2022/09/22 01:37:14;;;;;;;;;;;9.80;99.90;;;;;;6153207;23;19980;-77
2022/09/22 01:39:45;;;;;;;;;;;9.80;99.90;;;;;;6154779;23;19920;-77
2022/09/22 01:42:17;;;;;;;;;;;9.70;99.90;;;;;;6128899;23;19920;-77
2022/09/22 01:44:48;;;;;;;;;;;9.70;99.90;;;;;;6149930;23;20346;-77
2022/09/22 01:47:19;;;;;;;;;;;9.70;99.90;;;;;;6154307;23;19955;-77
2022/09/22 01:49:49;;;;;;;;;;;9.60;99.90;;;;;;6153269;23;20003;-77
2022/09/22 01:52:19;;;;;;;;;;;9.60;99.90;;;;;;6154943;23;19991;-78
2022/09/22 01:54:51;;;;;;;;;;;9.50;99.90;;;;;;6126172;23;19964;-77
2022/09/22 01:57:20;;;;;;;;;;;9.40;99.90;;;;;;6154000;23;19980;-77
2022/09/22 01:59:52;;;;;;;;;;;9.40;99.90;;;;;;6153878;23;19920;-77
2022/09/22 02:02:23;;;;;;;;;;;9.40;99.90;;;;;;6153673;23;19920;-77
2022/09/22 02:04:53;;;;;;;;;;;9.40;99.90;;;;;;6153627;23;19920;-78
2022/09/22 02:07:25;;;;;;;;;;;9.40;99.90;;;;;;6155236;23;19920;-78
2022/09/22 02:09:54;;;;;;;;;;;9.40;99.90;;;;;;6127924;23;19921;-77
2022/09/22 02:12:21;;;;;;;;;;;9.40;99.90;;;;;;6127375;23;19924;-77
2022/09/22 02:14:48;;;;;;;;;;;9.40;99.90;;;;;;6128858;23;19943;-78
2022/09/22 02:17:16;;;;;;;;;;;9.40;99.90;;;;;;6152846;23;19920;-77
2022/09/22 02:19:44;;;;;;;;;;;9.40;99.90;;;;;;6155023;23;19975;-78
2022/09/22 02:22:12;;;;;;;;;;;9.40;99.90;;;;;;6153827;23;19920;-78
2022/09/22 02:24:41;;;;;;;;;;;9.40;99.90;;;;;;6151195;23;19927;-74
2022/09/22 02:27:10;;;;;;;;;;;9.40;99.90;;;;;;6153568;23;19928;-74
2022/09/22 02:29:40;;;;;;;;;;;9.50;99.90;;;;;;6101909;23;19924;-74
2022/09/22 02:32:10;;;;;;;;;;;9.50;99.90;;;;;;6152780;23;20322;-74
2022/09/22 02:34:38;;;;;;;;;;;9.60;99.90;;;;;;6152267;23;19921;-74
2022/09/22 02:37:15;;;;;;;;;;;9.60;99.90;;;;;;6152983;23;20486;-73
2022/09/22 02:39:46;;;;;;;;;;;9.70;99.90;;;;;;6150929;23;20297;-73
2022/09/22 02:42:24;;;;;;;;;;;9.70;99.90;;;;;;6153450;23;20022;-73
2022/09/22 02:44:56;;;;;;;;;;;9.70;99.90;;;;;;6152755;23;19921;-74
2022/09/22 02:47:27;;;;;;;;;;;9.80;99.90;;;;;;6153028;23;20003;-74
2022/09/22 02:49:55;;;;;;;;;;;9.80;99.90;;;;;;6125388;23;19920;-75
2022/09/22 02:52:25;;;;;;;;;;;9.80;99.90;;;;;;6125787;23;19920;-74
2022/09/22 02:54:53;;;;;;;;;;;9.90;99.90;;;;;;6153206;23;19927;-74
2022/09/22 02:57:20;;;;;;;;;;;9.90;99.90;;;;;;6155051;23;20338;-74
2022/09/22 02:59:47;;;;;;;;;;;9.90;99.90;;;;;;6125996;23;19920;-74
2022/09/22 03:02:14;;;;;;;;;;;9.90;99.90;;;;;;6126965;23;19920;-73
2022/09/22 03:04:41;;;;;;;;;;;9.90;99.90;;;;;;6153618;23;19921;-73
2022/09/22 03:07:08;;;;;;;;;;;9.90;99.90;;;;;;6126797;23;19928;-73
2022/09/22 03:09:37;;;;;;;;;;;10.00;99.90;;;;;;6151893;23;19920;-74
2022/09/22 03:12:05;;;;;;;;;;;10.00;99.90;;;;;;6126361;23;19921;-77
2022/09/22 03:14:32;;;;;;;;;;;10.00;99.90;;;;;;6154561;23;19962;-76
2022/09/22 03:17:02;;;;;;;;;;;9.90;99.90;;;;;;6153449;23;19927;-75
2022/09/22 03:19:29;;;;;;;;;;;9.90;99.90;;;;;;6154599;23;19975;-76
2022/09/22 03:21:56;;;;;;;;;;;9.90;99.90;;;;;;6154714;23;19920;-76
2022/09/22 03:24:23;;;;;;;;;;;9.90;99.90;;;;;;6154752;23;19925;-76
2022/09/22 03:26:52;;;;;;;;;;;10.00;99.90;;;;;;6153255;23;19943;-76
2022/09/22 03:29:19;;;;;;;;;;;10.00;99.90;;;;;;6127372;23;19924;-76
2022/09/22 03:31:46;;;;;;;;;;;10.00;99.90;;;;;;6154263;23;19957;-76
2022/09/22 03:34:13;;;;;;;;;;;10.00;99.90;;;;;;6154311;23;19932;-77
2022/09/22 03:36:40;;;;;;;;;;;10.00;99.90;;;;;;6152454;23;20012;-77
2022/09/22 03:39:07;;;;;;;;;;;10.10;99.90;;;;;;6126855;23;20020;-77
2022/09/22 03:41:34;;;;;;;;;;;10.10;99.90;;;;;;6153431;23;20414;-76
2022/09/22 03:44:04;;;;;;;;;;;10.10;99.90;;;;;;6126539;23;19965;-77
2022/09/22 03:46:31;;;;;;;;;;;10.10;99.90;;;;;;6125868;23;19967;-77
2022/09/22 03:48:58;;;;;;;;;;;10.10;99.90;;;;;;6125992;23;20000;-77
2022/09/22 03:51:26;;;;;;;;;;;10.10;99.90;;;;;;6153625;23;19931;-77
2022/09/22 03:53:54;;;;;;;;;;;10.10;99.90;;;;;;6152126;23;20223;-76
2022/09/22 03:56:21;;;;;;;;;;;10.10;99.90;;;;;;6150473;23;19951;-77
2022/09/22 03:58:48;;;;;;;;;;;10.10;99.90;;;;;;6149847;23;20342;-76
2022/09/22 04:01:16;;;;;;;;;;;10.20;99.90;;;;;;6153794;23;19920;-77
2022/09/22 04:03:44;;;;;;;;;;;10.20;99.90;;;;;;6126060;23;19928;-76
2022/09/22 04:06:11;;;;;;;;;;;10.30;99.90;;;;;;6151439;23;19925;-77
2022/09/22 04:08:38;;;;;;;;;;;10.30;99.90;;;;;;6153952;23;19920;-76
2022/09/22 04:11:07;;;;;;;;;;;10.30;99.90;;;;;;6152457;23;19927;-77
2022/09/22 04:13:34;;;;;;;;;;;10.30;99.90;;;;;;6125852;23;19924;-77
2022/09/22 04:16:02;;;;;;;;;;;10.30;99.90;;;;;;6151903;23;19920;-76
2022/09/22 04:18:39;;;;;;;;;;;10.30;99.90;;;;;;5108560;27;19977;-78
2022/09/22 04:21:06;;;;;;;;;;;10.30;99.90;;;;;;5098188;28;19935;-77
2022/09/22 04:23:34;;;;;;;;;;;10.40;99.90;;;;;;5086596;28;19978;-78
2022/09/22 04:26:01;;;;;;;;;;;10.40;99.90;;;;;;5087477;28;20284;-77
2022/09/22 04:28:29;;;;;;;;;;;10.40;99.90;;;;;;5088806;28;19936;-77
2022/09/22 04:30:56;;;;;;;;;;;10.50;99.90;;;;;;5066911;28;20411;-77
2022/09/22 04:33:23;;;;;;;;;;;10.50;99.90;;;;;;5067063;28;19979;-77
2022/09/22 04:35:52;;;;;;;;;;;10.60;99.90;;;;;;5066542;28;19938;-78
2022/09/22 04:38:23;;;;;;;;;;;10.60;99.90;;;;;;5071471;28;20308;-78
2022/09/22 04:40:52;;;;;;;;;;;10.70;99.90;;;;;;5079952;28;19929;-79
2022/09/22 04:43:19;;;;;;;;;;;10.70;99.90;;;;;;5079384;28;20376;-78
2022/09/22 04:45:50;;;;;;;;;;;10.70;99.90;;;;;;5075929;28;19929;-73
2022/09/22 04:48:17;;;;;;;;;;;10.70;99.90;;;;;;5055340;28;19929;-74
2022/09/22 04:50:45;;;;;;;;;;;10.70;99.90;;;;;;5081933;28;19928;-74
2022/09/22 04:53:13;;;;;;;;;;;10.70;99.90;;;;;;5071546;28;19929;-73
2022/09/22 04:55:46;;;;;;;;;;;10.80;99.90;;;;;;5068986;28;19935;-76
2022/09/22 04:58:18;;;;;;;;;;;10.80;99.90;;;;;;5085366;28;20016;-78
2022/09/22 05:00:45;;;;;;;;;;;10.80;99.90;;;;;;5074681;28;19939;-76
2022/09/22 05:03:13;;;;;;;;;;;10.90;99.90;;;;;;5090831;28;20557;-79
2022/09/22 05:05:40;;;;;;;;;;;10.90;99.90;;;;;;5083823;28;19963;-78
2022/09/22 05:08:09;;;;;;;;;;;10.90;99.90;;;;;;5079100;28;19928;-83
2022/09/22 05:10:38;;;;;;;;;;;11.00;99.90;;;;;;5079665;28;19935;-81
2022/09/22 05:13:05;;;;;;;;;;;11.00;99.90;;;;;;5086505;28;19928;-79
2022/09/22 05:15:33;;;;;;;;;;;11.00;99.90;;;;;;5085749;28;20014;-80
2022/09/22 05:18:00;;;;;;;;;;;11.10;99.90;;;;;;5076854;28;19960;-79
2022/09/22 05:20:28;;;;;;;;;;;11.20;99.90;;;;;;5059481;28;20038;-77
2022/09/22 05:22:55;;;;;;;;;;;11.20;99.90;;;;;;5083469;28;20580;-79
2022/09/22 05:25:22;;;;;;;;;;;11.30;99.90;;;;;;5082421;28;19935;-80
2022/09/22 05:27:52;;;;;;;;;;;11.30;99.90;;;;;;5079734;28;20027;-75
2022/09/22 05:30:20;;;;;;;;;;;11.40;99.90;;;;;;5067461;28;19929;-74
2022/09/22 05:32:48;;;;;;;;;;;11.50;99.90;;;;;;5069735;28;20018;-78
2022/09/22 05:35:18;;;;;;;;;;;11.50;99.90;;;;;;5067215;28;20305;-79
2022/09/22 05:37:50;;;;;;;;;;;11.60;99.90;;;;;;5057318;28;20298;-79
2022/09/22 05:40:18;;;;;;;;;;;11.70;99.90;;;;;;5058192;28;19935;-78
2022/09/22 05:42:47;;;;;;;;;;;11.70;99.90;;;;;;5070492;28;20042;-78
2022/09/22 05:45:17;;;;;;;;;;;11.80;99.90;;;;;;5068785;28;19936;-80
2022/09/22 05:47:44;;;;;;;;;;;11.80;99.90;;;;;;5069437;28;19928;-79
2022/09/22 05:50:13;;;;;;;;;;;11.90;99.90;;;;;;5048168;28;19929;-79
2022/09/22 05:52:40;;;;;;;;;;;12.00;99.90;;;;;;5072231;28;19929;-80
2022/09/22 05:55:09;;;;;;;;;;;12.00;99.90;;;;;;5069713;28;19932;-79
2022/09/22 05:57:36;;;;;;;;;;;12.10;99.90;;;;;;5071817;28;19929;-73
2022/09/22 06:00:05;;;;;;;;;;;12.10;99.90;;;;;;5072972;28;19981;-73
2022/09/22 06:02:40;;;;;;;;;;;12.20;99.90;;;;;;5073090;28;19932;-75
2022/09/22 06:05:08;;;;;;;;;;;12.30;99.90;;;;;;5070165;28;20550;-74
2022/09/22 06:07:35;;;;;;;;;;;12.30;99.90;;;;;;5066548;28;20055;-75
2022/09/22 06:10:03;;;;;;;;;;;12.40;99.90;;;;;;5064213;28;19936;-73
2022/09/22 06:12:30;;;;;;;;;;;12.50;99.90;;;;;;5053877;28;19933;-76
2022/09/22 06:14:58;;;;;;;;;;;12.60;99.90;;;;;;5071000;28;19935;-73
2022/09/22 06:17:25;;;;;;;;;;;12.70;99.90;;;;;;5070641;28;20397;-74
2022/09/22 06:19:53;;;;;;;;;;;12.80;99.90;;;;;;5067824;28;20332;-77
2022/09/22 06:22:22;;;;;;;;;;;12.90;99.90;;;;;;5060410;28;19989;-76
2022/09/22 06:24:50;;;;;;;;;;;13.00;99.90;;;;;;5055537;28;19959;-78
2022/09/22 06:27:21;;;;;;;;;;;13.00;99.90;;;;;;5065167;28;19928;-76
2022/09/22 06:29:48;;;;;;;;;;;13.10;99.90;;;;;;5070556;28;19932;-79
2022/09/22 06:32:18;;;;;;;;;;;13.20;99.90;;;;;;5063211;28;20809;-80
2022/09/22 06:34:45;;;;;;;;;;;13.30;99.90;;;;;;5063881;28;19955;-81
2022/09/22 06:37:15;;;;;;;;;;;13.40;99.90;;;;;;5066235;28;20057;-76
2022/09/22 06:39:42;;;;;;;;;;;13.50;99.90;;;;;;5067524;28;19959;-76
2022/09/22 06:42:09;;;;;;;;;;;13.60;99.90;;;;;;5066542;28;19933;-75
2022/09/22 06:44:38;;;;;;;;;;;13.70;99.90;;;;;;5066203;28;19928;-77
2022/09/22 06:47:05;;;;;;;;;;;13.80;99.90;;;;;;5069863;28;20035;-76
2022/09/22 06:49:32;;;;;;;;;;;13.80;99.90;;;;;;5068587;28;19933;-76
2022/09/22 06:51:59;;;;;;;;;;;14.00;99.90;;;;;;5068999;28;19932;-78
2022/09/22 06:54:28;;;;;;;;;;;14.50;99.90;;;;;;5068996;28;19948;-78
2022/09/22 06:56:55;;;;;;;;;;;15.70;99.90;;;;;;5070524;28;20878;-76
2022/09/22 06:59:22;;;;;;;;;;;17.20;99.90;;;;;;5068318;28;19928;-76
2022/09/22 07:01:50;;;;;;;;;;;18.60;99.90;;;;;;5066105;28;19928;-80
2022/09/22 07:04:18;;;;;;;;;;;19.90;99.90;;;;;;5063152;28;19929;-82
2022/09/22 07:06:45;;;;;;;;;;;20.70;99.90;;;;;;5070374;28;19936;-81
2022/09/22 07:09:13;;;;;;;;;;;;;;;;;;5065543;28;19956;-80
2022/09/22 07:11:48;;;;;;;;;;;21.80;99.90;;;;;;5069004;28;19970;-81
2022/09/22 07:14:17;;;;;;;;;;;22.30;99.90;;;;;;5068785;28;19928;-81
2022/09/22 07:16:47;;;;;;;;;;;22.50;99.90;;;;;;5070066;28;20024;-81
2022/09/22 07:19:14;;;;;;;;;;;22.00;99.90;;;;;;5059320;28;20042;-80
2022/09/22 07:21:43;;;;;;;;;;;21.00;99.90;;;;;;5067128;28;19936;-82
2022/09/22 07:24:10;;;;;;;;;;;20.10;99.90;;;;;;5070124;28;20307;-79
2022/09/22 07:26:39;;;;;;;;;;;19.50;99.90;;;;;;5067811;28;20308;-81
2022/09/22 07:29:10;;;;;;;;;;;19.10;99.90;;;;;;5064620;28;20377;-79
2022/09/22 07:31:38;;;;;;;;;;;18.90;99.90;;;;;;5065863;28;19928;-80
2022/09/22 07:34:05;;;;;;;;;;;18.60;99.90;;;;;;5069801;28;19982;-81
2022/09/22 07:36:35;;;;;;;;;;;18.50;99.90;;;;;;5062483;28;19935;-78
2022/09/22 07:39:05;;;;;;;;;;;18.30;99.90;;;;;;5064008;28;20233;-80
2022/09/22 07:41:40;;;;;;;;;;;18.40;99.90;;;;;;5067956;28;19936;-79
2022/09/22 07:46:56;;;;;;;;;;;19.10;99.90;;;;;;5055884;28;20086;-76
2022/09/22 07:49:23;;;;;;;;;;;19.00;99.90;;;;;;5058780;28;19928;-77
2022/09/22 07:51:53;;;;;;;;;;;18.90;99.90;;;;;;5056654;28;19929;-77
2022/09/22 07:54:22;;;;;;;;;;;18.50;99.90;;;;;;5060128;28;19963;-78
2022/09/22 07:56:57;;;;;;;;;;;18.50;99.90;;;;;;5064493;28;19939;-77
2022/09/22 07:59:27;;;;;;;;;;;18.50;99.90;;;;;;5065149;28;19929;-77
2022/09/22 08:01:55;;;;;;;;;;;18.60;99.90;;;;;;5061839;28;19928;-77
2022/09/22 08:05:05;;;;;;;;;;;18.90;99.90;;;;;;5054291;28;19928;-78
2022/09/22 08:07:38;;;;;;;;;;;19.60;99.90;;;;;;5047011;28;19976;-78
2022/09/22 08:10:11;;;;;;;;;;;19.80;99.90;;;;;;5058463;28;19968;-78
2022/09/22 08:12:38;;;;;;;;;;;19.60;99.90;;;;;;5063086;28;19928;-80
2022/09/22 08:15:07;;;;;;;;;;;19.30;99.90;;;;;;5062313;28;19929;-82
2022/09/22 08:17:34;;;;;;;;;;;18.70;99.90;;;;;;5067816;28;19936;-80
2022/09/22 08:20:03;;;;;;;;;;;18.00;99.90;;;;;;5059543;28;20015;-81
2022/09/22 08:22:31;;;;;;;;;;;17.50;99.90;;;;;;5061556;28;19928;-79
2022/09/22 08:24:58;;;;;;;;;;;17.10;99.90;;;;;;5066631;28;19929;-81
2022/09/22 08:27:26;;;;;;;;;;;17.10;99.90;;;;;;5059967;28;20307;-80
2022/09/22 08:29:53;;;;;;;;;;;17.40;99.90;;;;;;5069762;28;19990;-80
2022/09/22 08:32:25;;;;;;;;;;;18.10;99.90;;;;;;5065510;28;20340;-77
2022/09/22 08:34:56;;;;;;;;;;;19.00;99.90;;;;;;5066941;28;19956;-79
2022/09/22 08:37:26;;;;;;;;;;;20.00;99.90;;;;;;5048872;28;19935;-79
2022/09/22 08:39:54;;;;;;;;;;;20.90;99.90;;;;;;5055845;28;20023;-79
2022/09/22 08:42:22;;;;;;;;;;;21.60;99.90;;;;;;5049684;28;19929;-81
2022/09/22 08:44:57;;;;;;;;;;;22.40;99.90;;;;;;5047390;28;19929;-81
2022/09/22 08:53:08;;;;;;;;;;;24.70;91.90;;;;;;5064405;28;20031;-81
2022/09/22 08:55:37;;;;;;;;;;;24.80;88.70;;;;;;5067719;28;19982;-82
2022/09/22 08:58:25;;;;;;;;;;;24.60;88.60;;;;;;5069566;28;19950;-82
2022/09/22 09:01:04;;;;;;;;;;;24.60;84.00;;;;;;5064752;28;19935;-83
2022/09/22 09:03:53;;;;;;;;;;;24.20;85.60;;;;;;5063501;28;19932;-83
2022/09/22 09:06:36;;;;;;;;;;;24.00;87.00;;;;;;5051420;28;19936;-82
2022/09/22 09:09:19;;;;;;;;;;;22.90;87.40;;;;;;5068194;28;20620;-82
2022/09/22 09:11:58;;;;;;;;;;;21.90;90.20;;;;;;5068169;28;19928;-82
2022/09/22 09:14:43;;;;;;;;;;;20.80;92.20;;;;;;5050683;28;19932;-81
2022/09/22 09:17:13;;;;;;;;;;;19.90;94.10;;;;;;5070738;28;19932;-81
2022/09/22 09:19:42;;;;;;;;;;;19.30;95.10;;;;;;5068836;28;19928;-81
2022/09/22 09:22:16;;;;;;;;;;;19.20;97.10;;;;;;5071711;28;19929;-77
2022/09/22 09:24:46;;;;;;;;;;;20.70;96.60;;;;;;5067764;28;19928;-78
2022/09/22 09:27:15;;;;;;;;;;;22.60;93.40;;;;;;5069931;28;19933;-82
2022/09/22 09:29:46;;;;;;;;;;;23.50;87.40;;;;;;5064254;28;20431;-80
2022/09/22 09:32:18;;;;;;;;;;;23.40;85.90;;;;;;5063215;28;19936;-82
2022/09/22 09:34:48;;;;;;;;;;;23.10;86.50;;;;;;5071060;28;20205;-82
2022/09/22 09:37:16;;;;;;;;;;;22.60;87.00;;;;;;5067259;28;19935;-77
2022/09/22 09:39:45;;;;;;;;;;;22.10;90.00;;;;;;5070500;28;19935;-77
2022/09/22 09:42:18;;;;;;;;;;;21.70;90.70;;;;;;5053178;28;19935;-77
2022/09/22 09:44:50;;;;;;;;;;;21.60;91.70;;;;;;5069498;28;20039;-80
2022/09/22 09:47:28;;;;;;;;;;;21.20;91.00;;;;;;5062833;28;20019;-81
2022/09/22 09:49:56;;;;;;;;;;;20.80;91.60;;;;;;5064092;28;19929;-80
2022/09/22 09:52:25;;;;;;;;;;;20.40;92.20;;;;;;5070971;28;19928;-79
2022/09/22 09:54:53;;;;;;;;;;;20.40;93.50;;;;;;5052540;28;19932;-80
2022/09/22 09:57:22;;;;;;;;;;;20.60;93.20;;;;;;5052733;28;20406;-78
2022/09/22 10:00:31;;;;;;;;;;;21.10;92.90;;;;;;5059982;28;19928;-79
2022/09/22 10:03:06;;;;;;;;;;;21.90;92.20;;;;;;5065348;28;19935;-77
2022/09/22 10:05:36;;;;;;;;;;;23.40;89.20;;;;;;5060935;28;20948;-75
2022/09/22 10:08:15;;;;;;;;;;;23.10;85.00;;;;;;5051270;28;19928;-75
2022/09/22 10:10:42;;;;;;;;;;;22.20;87.60;;;;;;5070312;28;20319;-75
2022/09/22 10:13:24;;;;;;;;;;;21.30;90.90;;;;;;5062464;28;19929;-73
2022/09/22 10:16:19;;;;;;;;;;;20.60;91.90;;;;;;5042516;28;20389;-74
2022/09/22 10:18:50;;;;;;;;;;;19.90;92.80;;;;;;5040125;28;19929;-74
2022/09/22 10:21:20;;;;;;;;;;;19.30;93.90;;;;;;5070913;28;19929;-74
2022/09/22 10:23:48;;;;;;;;;;;19.00;94.90;;;;;;5067013;28;20027;-77
2022/09/22 10:26:19;;;;;;;;;;;18.90;95.60;;;;;;5069538;28;20408;-78
2022/09/22 10:29:06;;;;;;;;;;;18.90;96.90;;;;;;5067580;28;20359;-78
2022/09/22 10:31:37;;;;;;;;;;;18.80;96.40;;;;;;5061177;28;19929;-73
2022/09/22 10:34:05;;;;;;;;;;;18.80;95.90;;;;;;5053327;28;19982;-73
2022/09/22 10:36:35;;;;;;;;;;;18.90;96.70;;;;;;5069380;28;19947;-73
2022/09/22 10:39:02;;;;;;;;;;;18.90;96.10;;;;;;5069682;28;19932;-77
2022/09/22 10:41:33;;;;;;;;;;;19.00;96.20;;;;;;5051988;28;19935;-77
2022/09/22 10:44:01;;;;;;;;;;;19.00;96.20;;;;;;5055253;28;19929;-78
2022/09/22 10:46:38;;;;;;;;;;;19.00;96.10;;;;;;5069052;28;19951;-79
2022/09/22 10:49:12;;;;;;;;;;;18.90;96.80;;;;;;5069393;28;19936;-77
2022/09/22 10:51:53;;;;;;;;;;;19.00;96.40;;;;;;5051346;28;19974;-78
2022/09/22 10:54:33;;;;;;;;;;;19.00;96.80;;;;;;5055805;28;21252;-77
2022/09/22 10:57:08;;;;;;;;;;;19.00;96.80;;;;;;5065962;28;19928;-77
2022/09/22 10:59:57;;;;;;;;;;;18.80;96.90;;;;;;5068782;28;19935;-80
2022/09/22 11:03:15;;;;;;;;;;;18.70;97.20;;;;;;5072178;28;19929;-78
2022/09/22 11:14:21;;;;;;;;;;;18.50;98.00;;;;;;5063700;28;19935;-78
2022/09/22 11:17:06;;;;;;;;;;;18.20;98.60;;;;;;5059783;28;19936;-78
2022/09/22 11:19:46;;;;;;;;;;;17.90;99.30;;;;;;5052208;28;19929;-77
2022/09/22 11:22:26;;;;;;;;;;;17.50;99.90;;;;;;5062765;28;19974;-78
2022/09/22 11:25:04;;;;;;;;;;;17.20;99.90;;;;;;5066850;28;19950;-78
2022/09/22 11:27:40;;;;;;;;;;;16.90;99.90;;;;;;5068564;28;20388;-78
2022/09/22 11:30:15;;;;;;;;;;;16.60;99.90;;;;;;5070795;28;20390;-79
2022/09/22 11:33:01;;;;;;;;;;;16.40;99.90;;;;;;5064037;28;19975;-78
2022/09/22 11:35:50;;;;;;;;;;;16.20;99.90;;;;;;5063148;28;19990;-80
2022/09/22 11:38:30;;;;;;;;;;;16.10;99.90;;;;;;5051670;28;19936;-79
2022/09/22 11:41:10;;;;;;;;;;;16.00;99.90;;;;;;5066924;28;19929;-78
2022/09/22 11:43:45;;;;;;;;;;;16.10;99.90;;;;;;5066116;28;19936;-78
2022/09/22 11:46:21;;;;;;;;;;;16.20;99.90;;;;;;5065998;28;20031;-79
2022/09/22 11:49:00;;;;;;;;;;;16.30;99.90;;;;;;5066380;28;19928;-79
2022/09/22 11:51:44;;;;;;;;;;;16.30;99.90;;;;;;5067327;28;19956;-78
2022/09/22 11:54:20;;;;;;;;;;;16.20;99.90;;;;;;5063124;28;19963;-76
2022/09/22 11:56:50;;;;;;;;;;;16.20;99.90;;;;;;5069631;28;20013;-75
2022/09/22 11:59:28;;;;;;;;;;;16.20;99.90;;;;;;5069386;28;19934;-76
2022/09/22 12:01:58;;;;;;;;;;;16.10;99.90;;;;;;5050467;28;19978;-76
2022/09/22 12:04:34;;;;;;;;;;;16.10;99.90;;;;;;5069104;28;20376;-75
2022/09/22 12:07:03;;;;;;;;;;;16.00;99.90;;;;;;5068867;28;19932;-75
2022/09/22 12:09:35;;;;;;;;;;;16.00;99.90;;;;;;5067388;28;20024;-76
2022/09/22 12:12:10;;;;;;;;;;;16.10;99.90;;;;;;5063529;28;19999;-77
2022/09/22 12:14:38;;;;;;;;;;;16.10;99.90;;;;;;5062107;28;20312;-79
2022/09/22 12:17:10;;;;;;;;;;;16.20;99.90;;;;;;5061543;28;20027;-77
2022/09/22 12:19:52;;;;;;;;;;;16.20;99.90;;;;;;5065550;28;20066;-78
2022/09/22 12:22:25;;;;;;;;;;;16.30;99.90;;;;;;5067234;28;20404;-80
2022/09/22 12:24:53;;;;;;;;;;;16.30;99.90;;;;;;5069976;28;19929;-78
2022/09/22 12:27:22;;;;;;;;;;;16.40;99.90;;;;;;5068652;28;19990;-78
2022/09/22 12:29:58;;;;;;;;;;;16.50;99.90;;;;;;5068842;28;19929;-81
2022/09/22 12:32:29;;;;;;;;;;;16.60;99.90;;;;;;5060001;28;19947;-81
2022/09/22 12:34:57;;;;;;;;;;;16.80;99.90;;;;;;5070110;28;19932;-78
2022/09/22 12:37:28;;;;;;;;;;;16.90;99.90;;;;;;5067862;28;19928;-77
2022/09/22 12:39:57;;;;;;;;;;;17.00;99.90;;;;;;5069534;28;19972;-80
2022/09/22 12:42:33;;;;;;;;;;;17.00;99.90;;;;;;5070411;28;20229;-81
2022/09/22 12:45:07;;;;;;;;;;;17.00;99.90;;;;;;5055957;28;20320;-79
2022/09/22 12:47:37;;;;;;;;;;;17.10;99.90;;;;;;5048366;28;19932;-80
2022/09/22 12:50:07;;;;;;;;;;;17.30;99.90;;;;;;5073472;28;20265;-80
2022/09/22 12:52:59;;;;;;;;;;;17.60;99.90;;;;;;5070906;28;19928;-80
2022/09/22 12:55:37;;;;;;;;;;;18.00;99.90;;;;;;5071210;28;19981;-81
2022/09/22 12:58:39;;;;;;;;;;;19.00;99.90;;;;;;5070873;28;20030;-79
2022/09/22 13:01:32;;;;;;;;;;;19.60;99.90;;;;;;5069966;28;20371;-81
2022/09/22 13:04:14;;;;;;;;;;;19.30;99.90;;;;;;5068176;28;19933;-79
2022/09/22 13:06:58;;;;;;;;;;;18.70;99.90;;;;;;5087245;28;20426;-79
2022/09/22 13:09:28;;;;;;;;;;;18.20;99.90;;;;;;5062921;28;20050;-83
2022/09/22 13:12:27;;;;;;;;;;;17.80;99.90;;;;;;5073442;28;19929;-82
2022/09/22 13:15:20;;;;;;;;;;;17.60;99.90;;;;;;5070845;28;19929;-79
2022/09/22 13:17:48;;;;;;;;;;;17.50;99.90;;;;;;5042181;28;20403;-79
2022/09/22 13:20:22;;;;;;;;;;;17.40;99.90;;;;;;5071852;28;19964;-81
2022/09/22 13:22:50;;;;;;;;;;;17.20;99.90;;;;;;5052972;28;20313;-81
2022/09/22 13:25:26;;;;;;;;;;;17.30;99.90;;;;;;5067353;28;19929;-81
2022/09/22 13:28:21;;;;;;;;;;;17.50;99.90;;;;;;5073343;28;19929;-78
2022/09/22 13:30:59;;;;;;;;;;;18.00;99.90;;;;;;5038596;28;19932;-81
2022/09/22 13:33:28;;;;;;;;;;;18.30;99.90;;;;;;5070695;28;20028;-80
2022/09/22 13:36:01;;;;;;;;;;;18.40;99.90;;;;;;5065656;28;20424;-80
2022/09/22 13:38:29;;;;;;;;;;;18.10;99.90;;;;;;5070224;28;20039;-78
2022/09/22 13:40:56;;;;;;;;;;;17.80;99.90;;;;;;5066794;28;19928;-79
2022/09/22 13:43:28;;;;;;;;;;;17.60;99.90;;;;;;5068762;28;19935;-76
2022/09/22 13:45:57;;;;;;;;;;;17.40;99.90;;;;;;5073083;28;19950;-76
2022/09/22 13:48:25;;;;;;;;;;;17.10;99.90;;;;;;5073167;28;20877;-75
2022/09/22 13:50:55;;;;;;;;;;;16.80;99.90;;;;;;5069839;28;20031;-74
2022/09/22 13:53:22;;;;;;;;;;;16.60;99.90;;;;;;5071809;28;19933;-75
2022/09/22 13:55:51;;;;;;;;;;;16.40;99.90;;;;;;5071072;28;20361;-80
2022/09/22 13:58:23;;;;;;;;;;;16.20;99.90;;;;;;5070989;28;20406;-78
2022/09/22 14:00:58;;;;;;;;;;;15.90;99.90;;;;;;5060237;28;19929;-80
2022/09/22 14:03:25;;;;;;;;;;;15.70;99.90;;;;;;5070880;28;20281;-80
2022/09/22 14:05:53;;;;;;;;;;;15.60;99.90;;;;;;5078531;28;19928;-79
2022/09/22 14:08:25;;;;;;;;;;;15.40;99.90;;;;;;5077123;28;19929;-78
2022/09/22 14:10:53;;;;;;;;;;;15.30;99.90;;;;;;5066600;28;19932;-74
2022/09/22 14:13:39;;;;;;;;;;;15.20;99.90;;;;;;5072049;28;19928;-74
2022/09/22 14:16:10;;;;;;;;;;;15.10;99.90;;;;;;5069630;28;20297;-74
2022/09/22 14:18:41;;;;;;;;;;;15.10;99.90;;;;;;5069392;28;19943;-74
2022/09/22 14:21:09;;;;;;;;;;;15.00;99.90;;;;;;5069892;28;20412;-74
2022/09/22 14:23:37;;;;;;;;;;;14.90;99.90;;;;;;5063568;28;19928;-74
2022/09/22 14:26:19;;;;;;;;;;;14.80;99.90;;;;;;5071887;28;20485;-79
2022/09/22 14:28:46;;;;;;;;;;;14.70;99.90;;;;;;5065607;28;20474;-80
2022/09/22 14:31:18;;;;;;;;;;;14.50;99.90;;;;;;5067597;28;20307;-80
2022/09/22 14:33:45;;;;;;;;;;;14.50;99.90;;;;;;5071494;28;19929;-79
2022/09/22 14:36:17;;;;;;;;;;;14.40;99.90;;;;;;5068395;28;20324;-79
2022/09/22 14:38:44;;;;;;;;;;;14.30;99.90;;;;;;5066147;28;19935;-79
2022/09/22 14:41:22;;;;;;;;;;;14.30;99.90;;;;;;5067165;28;19928;-78
2022/09/22 14:43:49;;;;;;;;;;;14.20;99.90;;;;;;5068767;28;19997;-77
2022/09/22 14:46:32;;;;;;;;;;;14.20;99.90;;;;;;5068066;28;19929;-77
2022/09/22 14:49:03;;;;;;;;;;;14.10;99.90;;;;;;5070331;28;19928;-78
2022/09/22 14:51:34;;;;;;;;;;;14.00;99.90;;;;;;5070091;28;19929;-80
2022/09/22 14:54:02;;;;;;;;;;;14.00;99.90;;;;;;5070821;28;20442;-76
2022/09/22 14:56:32;;;;;;;;;;;13.90;99.90;;;;;;5047042;28;20320;-75
2022/09/22 15:02:30;;;;;;;;;;;13.80;99.90;;;;;;5073929;28;20455;-78
2022/09/22 15:04:39;;;;;;;;;;;13.80;99.90;;;;;;5062242;28;19928;-77